CSZ4602 ZSOF-ZSAM
Flight info
| Callsign | CSZ4602 |
|---|---|
| Flight time | N/A |
| Altitude | 36100 |
| Route | MAD01D MADUK R343 UPLEL W95 SAPIN A470 LJG |
| Aircraft | A20N/M-SDE2E3FGHIRWXY/LB1 |
Departure
| Time | 2026-05-05 08:19 |
|---|---|
| Airport | Hefei Xinqiao International Airport (ZSOF) |
Arrival
| Time | N/A |
|---|---|
| Airport | Xiamen Gaoqi International Airport (ZSAM) |
| Time | Latitude | Longitude | Altitude | Speed | Heading |
|---|---|---|---|---|---|
| 2026-05-05 08:18 | 31.72187 | 117.17511 | 4300 ft | 271 kts | 108° |
| 2026-05-05 08:19 | 31.71595 | 117.19613 | 4476 ft | 271 kts | 106° |
| 2026-05-05 08:19 | 31.71043 | 117.21702 | 4649 ft | 271 kts | 106° |
| 2026-05-05 08:19 | 31.70474 | 117.23805 | 4824 ft | 272 kts | 106° |
| 2026-05-05 08:19 | 31.69882 | 117.25928 | 5001 ft | 272 kts | 107° |
| 2026-05-05 08:20 | 31.69287 | 117.28027 | 5176 ft | 272 kts | 107° |
| 2026-05-05 08:20 | 31.68480 | 117.30853 | 5411 ft | 273 kts | 107° |
| 2026-05-05 08:20 | 31.68078 | 117.32259 | 5528 ft | 273 kts | 107° |
| 2026-05-05 08:20 | 31.67468 | 117.34391 | 5705 ft | 274 kts | 107° |
| 2026-05-05 08:21 | 31.66666 | 117.37195 | 5938 ft | 274 kts | 107° |
| 2026-05-05 08:21 | 31.66253 | 117.38636 | 6057 ft | 274 kts | 107° |
| 2026-05-05 08:21 | 31.65649 | 117.40743 | 6232 ft | 275 kts | 107° |
| 2026-05-05 08:21 | 31.65037 | 117.42873 | 6408 ft | 275 kts | 107° |
| 2026-05-05 08:22 | 31.64425 | 117.45004 | 6584 ft | 276 kts | 107° |
| 2026-05-05 08:22 | 31.63815 | 117.47124 | 6759 ft | 276 kts | 107° |
| 2026-05-05 08:22 | 31.63195 | 117.49270 | 6935 ft | 276 kts | 107° |
| 2026-05-05 08:22 | 31.62571 | 117.51427 | 7113 ft | 277 kts | 107° |
| 2026-05-05 08:23 | 31.61959 | 117.53548 | 7287 ft | 277 kts | 107° |
| 2026-05-05 08:23 | 31.61344 | 117.55698 | 7462 ft | 278 kts | 104° |
| 2026-05-05 08:23 | 31.61052 | 117.57919 | 7633 ft | 277 kts | 88° |
| 2026-05-05 08:23 | 31.61298 | 117.60162 | 7816 ft | 277 kts | 76° |
| 2026-05-05 08:24 | 31.61754 | 117.62366 | 7991 ft | 277 kts | 75° |
| 2026-05-05 08:24 | 31.62232 | 117.64538 | 8165 ft | 278 kts | 75° |
| 2026-05-05 08:24 | 31.62714 | 117.66753 | 8343 ft | 278 kts | 75° |
| 2026-05-05 08:24 | 31.63183 | 117.68954 | 8518 ft | 279 kts | 76° |
| 2026-05-05 08:25 | 31.63650 | 117.71174 | 8694 ft | 280 kts | 76° |
| 2026-05-05 08:25 | 31.64110 | 117.73365 | 8868 ft | 280 kts | 76° |
| 2026-05-05 08:25 | 31.64571 | 117.75575 | 9042 ft | 281 kts | 76° |
| 2026-05-05 08:25 | 31.65040 | 117.77831 | 9220 ft | 282 kts | 76° |
| 2026-05-05 08:26 | 31.65502 | 117.80053 | 9394 ft | 283 kts | 76° |
| 2026-05-05 08:26 | 31.65971 | 117.82312 | 9571 ft | 284 kts | 76° |
| 2026-05-05 08:26 | 31.66434 | 117.84541 | 9752 ft | 286 kts | 76° |
| 2026-05-05 08:26 | 31.66907 | 117.86827 | 10293 ft | 293 kts | 76° |
| 2026-05-05 08:27 | 31.67390 | 117.89153 | 11037 ft | 298 kts | 76° |
| 2026-05-05 08:27 | 31.67896 | 117.91602 | 11406 ft | 315 kts | 76° |
| 2026-05-05 08:27 | 31.68424 | 117.94158 | 11726 ft | 333 kts | 76° |
| 2026-05-05 08:27 | 31.69175 | 117.97796 | 12154 ft | 355 kts | 76° |
| 2026-05-05 08:28 | 31.69568 | 117.99703 | 12512 ft | 361 kts | 76° |
| 2026-05-05 08:28 | 31.70155 | 118.02557 | 13234 ft | 363 kts | 76° |
| 2026-05-05 08:28 | 31.70949 | 118.06416 | 14190 ft | 367 kts | 77° |
| 2026-05-05 08:28 | 31.71288 | 118.08377 | 14637 ft | 368 kts | 81° |
| 2026-05-05 08:29 | 31.71554 | 118.11334 | 15285 ft | 371 kts | 88° |
| 2026-05-05 08:29 | 31.71466 | 118.15413 | 16157 ft | 374 kts | 95° |
| 2026-05-05 08:29 | 31.71331 | 118.17437 | 16576 ft | 376 kts | 95° |
| 2026-05-05 08:30 | 31.70885 | 118.23550 | 17769 ft | 382 kts | 96° |
| 2026-05-05 08:30 | 31.70658 | 118.26684 | 18341 ft | 385 kts | 96° |
| 2026-05-05 08:30 | 31.70433 | 118.29818 | 18892 ft | 388 kts | 96° |
| 2026-05-05 08:30 | 31.70208 | 118.32984 | 19426 ft | 391 kts | 96° |
| 2026-05-05 08:31 | 31.69904 | 118.37254 | 20127 ft | 396 kts | 96° |
| 2026-05-05 08:31 | 31.69674 | 118.40479 | 20635 ft | 399 kts | 97° |
| 2026-05-05 08:31 | 31.69519 | 118.42635 | 20967 ft | 401 kts | 97° |
| 2026-05-05 08:31 | 31.69285 | 118.45911 | 21457 ft | 405 kts | 97° |
| 2026-05-05 08:32 | 31.69047 | 118.49226 | 21938 ft | 408 kts | 97° |
| 2026-05-05 08:32 | 31.68809 | 118.52532 | 22403 ft | 412 kts | 97° |
| 2026-05-05 08:32 | 31.68565 | 118.55905 | 22861 ft | 415 kts | 97° |
| 2026-05-05 08:32 | 31.68319 | 118.59291 | 23300 ft | 419 kts | 97° |
| 2026-05-05 08:33 | 31.68070 | 118.62713 | 23726 ft | 423 kts | 97° |
| 2026-05-05 08:33 | 31.67819 | 118.66161 | 24147 ft | 427 kts | 98° |
| 2026-05-05 08:33 | 31.67566 | 118.69633 | 24550 ft | 430 kts | 98° |
| 2026-05-05 08:33 | 31.67310 | 118.73141 | 24946 ft | 434 kts | 98° |
| 2026-05-05 08:34 | 31.67050 | 118.76685 | 25324 ft | 438 kts | 98° |
| 2026-05-05 08:34 | 31.66787 | 118.80246 | 25688 ft | 441 kts | 98° |
| 2026-05-05 08:34 | 31.66521 | 118.83840 | 26039 ft | 445 kts | 98° |
| 2026-05-05 08:34 | 31.66250 | 118.87451 | 26373 ft | 449 kts | 98° |
| 2026-05-05 08:35 | 31.65976 | 118.91103 | 26702 ft | 452 kts | 98° |
| 2026-05-05 08:35 | 31.65333 | 118.95968 | 27087 ft | 452 kts | 111° |
| 2026-05-05 08:35 | 31.64519 | 118.98225 | 27274 ft | 449 kts | 122° |
| 2026-05-05 08:35 | 31.61938 | 119.01959 | 27677 ft | 442 kts | 143° |
| 2026-05-05 08:36 | 31.60341 | 119.03435 | 27896 ft | 442 kts | 146° |
| 2026-05-05 08:36 | 31.57876 | 119.05570 | 28179 ft | 444 kts | 147° |
| 2026-05-05 08:36 | 31.55388 | 119.07703 | 28424 ft | 447 kts | 147° |
| 2026-05-05 08:36 | 31.52881 | 119.09872 | 28676 ft | 450 kts | 147° |
| 2026-05-05 08:37 | 31.50366 | 119.12067 | 28914 ft | 453 kts | 147° |
| 2026-05-05 08:37 | 31.47849 | 119.14271 | 29170 ft | 454 kts | 147° |
| 2026-05-05 08:37 | 31.45303 | 119.16501 | 29495 ft | 454 kts | 147° |
| 2026-05-05 08:37 | 31.42783 | 119.18701 | 29806 ft | 454 kts | 147° |
| 2026-05-05 08:38 | 31.40275 | 119.20888 | 30087 ft | 454 kts | 147° |
| 2026-05-05 08:38 | 31.37738 | 119.23100 | 30359 ft | 455 kts | 147° |
| 2026-05-05 08:38 | 31.35196 | 119.25316 | 30617 ft | 455 kts | 147° |
| 2026-05-05 08:38 | 31.32681 | 119.27507 | 30828 ft | 457 kts | 147° |
| 2026-05-05 08:39 | 31.30119 | 119.29738 | 31051 ft | 458 kts | 147° |
| 2026-05-05 08:39 | 31.27601 | 119.31932 | 31280 ft | 459 kts | 147° |
| 2026-05-05 08:39 | 31.25049 | 119.34153 | 31517 ft | 459 kts | 147° |
| 2026-05-05 08:39 | 31.22472 | 119.36393 | 31753 ft | 459 kts | 147° |
| 2026-05-05 08:40 | 31.19911 | 119.38617 | 31977 ft | 460 kts | 147° |
| 2026-05-05 08:40 | 31.16520 | 119.41570 | 32270 ft | 461 kts | 147° |
| 2026-05-05 08:40 | 31.14817 | 119.43057 | 32419 ft | 461 kts | 147° |
| 2026-05-05 08:40 | 31.12241 | 119.45306 | 32635 ft | 462 kts | 147° |
| 2026-05-05 08:41 | 31.09679 | 119.47544 | 32849 ft | 462 kts | 147° |
| 2026-05-05 08:41 | 31.07103 | 119.49792 | 33060 ft | 463 kts | 147° |
| 2026-05-05 08:41 | 31.04560 | 119.52010 | 33273 ft | 463 kts | 147° |
| 2026-05-05 08:41 | 31.01968 | 119.54269 | 33493 ft | 463 kts | 147° |
| 2026-05-05 08:42 | 30.99404 | 119.56499 | 33716 ft | 463 kts | 147° |
| 2026-05-05 08:42 | 30.96817 | 119.58749 | 33954 ft | 462 kts | 146° |
| 2026-05-05 08:42 | 30.94267 | 119.60966 | 34199 ft | 461 kts | 146° |
| 2026-05-05 08:42 | 30.90863 | 119.63924 | 34502 ft | 459 kts | 146° |
| 2026-05-05 08:43 | 30.89177 | 119.65388 | 34631 ft | 459 kts | 146° |
| 2026-05-05 08:43 | 30.86632 | 119.67600 | 34815 ft | 459 kts | 146° |
| 2026-05-05 08:43 | 30.84192 | 119.69725 | 34969 ft | 459 kts | 146° |
| 2026-05-05 08:43 | 30.81701 | 119.71892 | 35111 ft | 460 kts | 146° |
| 2026-05-05 08:44 | 30.79141 | 119.74116 | 35249 ft | 460 kts | 146° |
| 2026-05-05 08:44 | 30.76545 | 119.76366 | 35383 ft | 461 kts | 146° |
| 2026-05-05 08:44 | 30.74008 | 119.78561 | 35507 ft | 461 kts | 146° |
| 2026-05-05 08:44 | 30.71434 | 119.80786 | 35631 ft | 461 kts | 146° |
| 2026-05-05 08:45 | 30.68871 | 119.82991 | 35754 ft | 462 kts | 146° |
| 2026-05-05 08:45 | 30.66263 | 119.85227 | 35871 ft | 462 kts | 146° |
| 2026-05-05 08:45 | 30.63685 | 119.87435 | 35973 ft | 463 kts | 146° |
| 2026-05-05 08:46 | 30.58558 | 119.91851 | 36051 ft | 464 kts | 145° |
| 2026-05-05 08:46 | 30.52578 | 119.97180 | 36053 ft | 463 kts | 148° |
| 2026-05-05 08:47 | 30.47884 | 119.99929 | 36056 ft | 457 kts | 165° |
| 2026-05-05 08:47 | 30.40598 | 120.00929 | 36058 ft | 450 kts | 187° |
| 2026-05-05 08:48 | 30.34646 | 119.99168 | 36058 ft | 445 kts | 206° |
| 2026-05-05 08:48 | 30.30157 | 119.96345 | 36061 ft | 444 kts | 212° |
| 2026-05-05 08:49 | 30.24849 | 119.92760 | 36059 ft | 444 kts | 212° |
| 2026-05-05 08:49 | 30.19494 | 119.89177 | 36058 ft | 444 kts | 211° |
| 2026-05-05 08:50 | 30.14158 | 119.85636 | 36059 ft | 444 kts | 211° |
| 2026-05-05 08:50 | 30.08818 | 119.82102 | 36059 ft | 443 kts | 211° |
| 2026-05-05 08:51 | 30.03498 | 119.78577 | 36059 ft | 443 kts | 212° |
| 2026-05-05 08:51 | 29.98190 | 119.75001 | 36058 ft | 444 kts | 212° |
| 2026-05-05 08:52 | 29.92847 | 119.71454 | 36058 ft | 444 kts | 209° |
| 2026-05-05 08:52 | 29.87188 | 119.68601 | 36058 ft | 446 kts | 201° |
| 2026-05-05 08:53 | 29.81198 | 119.66764 | 36058 ft | 448 kts | 192° |
| 2026-05-05 08:53 | 29.74996 | 119.65942 | 36059 ft | 450 kts | 186° |
| 2026-05-05 08:54 | 29.68759 | 119.65501 | 36059 ft | 450 kts | 186° |
| 2026-05-05 08:54 | 29.62546 | 119.65099 | 36058 ft | 451 kts | 184° |
| 2026-05-05 08:55 | 29.56298 | 119.64933 | 36059 ft | 451 kts | 184° |
| 2026-05-05 08:55 | 29.48990 | 119.64579 | 36059 ft | 450 kts | 186° |
| 2026-05-05 08:56 | 29.43806 | 119.64237 | 36059 ft | 450 kts | 185° |
| 2026-05-05 08:56 | 29.37528 | 119.63837 | 36058 ft | 450 kts | 185° |
| 2026-05-05 08:57 | 29.31328 | 119.63454 | 36058 ft | 450 kts | 185° |
| 2026-05-05 08:57 | 29.24052 | 119.63009 | 36058 ft | 450 kts | 185° |
| 2026-05-05 08:58 | 29.17788 | 119.62627 | 36058 ft | 450 kts | 185° |
| 2026-05-05 08:58 | 29.12600 | 119.62310 | 36059 ft | 451 kts | 185° |
| 2026-05-05 08:59 | 29.06400 | 119.61919 | 36060 ft | 446 kts | 184° |
| 2026-05-05 08:59 | 29.00214 | 119.61524 | 36055 ft | 448 kts | 182° |
| 2026-05-05 09:00 | 28.93951 | 119.61146 | 36057 ft | 455 kts | 182° |
| 2026-05-05 09:00 | 28.87639 | 119.60762 | 36058 ft | 458 kts | 182° |
| 2026-05-05 09:01 | 28.80225 | 119.60306 | 36059 ft | 458 kts | 182° |
| 2026-05-05 09:01 | 28.74924 | 119.59978 | 36059 ft | 458 kts | 182° |
| 2026-05-05 09:02 | 28.68623 | 119.59588 | 36056 ft | 456 kts | 182° |
| 2026-05-05 09:02 | 28.62416 | 119.59203 | 36053 ft | 441 kts | 182° |
| 2026-05-05 09:03 | 28.56373 | 119.58830 | 36054 ft | 430 kts | 182° |
| 2026-05-05 09:03 | 28.50509 | 119.58468 | 36055 ft | 420 kts | 182° |
| 2026-05-05 09:04 | 28.44750 | 119.58115 | 36056 ft | 412 kts | 182° |
| 2026-05-05 09:04 | 28.39078 | 119.57800 | 36056 ft | 405 kts | 182° |
| 2026-05-05 09:05 | 28.33516 | 119.57496 | 36056 ft | 400 kts | 182° |
| 2026-05-05 09:05 | 28.27975 | 119.57190 | 36050 ft | 387 kts | 182° |
| 2026-05-05 09:05 | 28.25370 | 119.57045 | 36052 ft | 372 kts | 182° |
| 2026-05-05 09:06 | 28.22828 | 119.56903 | 36054 ft | 357 kts | 182° |
| 2026-05-05 09:06 | 28.20400 | 119.56762 | 35990 ft | 343 kts | 182° |
| 2026-05-05 09:06 | 28.18072 | 119.56609 | 35720 ft | 340 kts | 184° |
| 2026-05-05 09:06 | 28.14882 | 119.56284 | 35238 ft | 349 kts | 186° |
| 2026-05-05 09:07 | 28.13286 | 119.56065 | 35141 ft | 349 kts | 187° |
| 2026-05-05 09:07 | 28.08461 | 119.55791 | 35134 ft | 352 kts | 176° |
| 2026-05-05 09:08 | 28.03489 | 119.56024 | 35144 ft | 367 kts | 178° |
| 2026-05-05 09:08 | 27.98300 | 119.56035 | 35155 ft | 382 kts | 180° |
| 2026-05-05 09:09 | 27.92890 | 119.55958 | 35164 ft | 397 kts | 180° |
| 2026-05-05 09:09 | 27.87287 | 119.55911 | 35172 ft | 411 kts | 179° |
| 2026-05-05 09:10 | 27.80497 | 119.55880 | 35182 ft | 426 kts | 179° |
| 2026-05-05 09:10 | 27.75535 | 119.55855 | 35187 ft | 435 kts | 179° |
| 2026-05-05 09:11 | 27.69437 | 119.55822 | 35194 ft | 446 kts | 180° |
| 2026-05-05 09:11 | 27.63199 | 119.55786 | 35200 ft | 454 kts | 180° |
| 2026-05-05 09:12 | 27.56868 | 119.55749 | 35292 ft | 459 kts | 180° |
| 2026-05-05 09:12 | 27.53694 | 119.55729 | 35452 ft | 459 kts | 180° |
| 2026-05-05 09:12 | 27.50500 | 119.55708 | 35624 ft | 458 kts | 180° |
| 2026-05-05 09:12 | 27.47296 | 119.55688 | 35784 ft | 458 kts | 180° |
| 2026-05-05 09:13 | 27.44142 | 119.55670 | 35930 ft | 457 kts | 180° |
| 2026-05-05 09:13 | 27.40973 | 119.55659 | 36072 ft | 457 kts | 179° |
| 2026-05-05 09:13 | 27.37812 | 119.55655 | 36152 ft | 457 kts | 179° |
| 2026-05-05 09:14 | 27.31437 | 119.55647 | 36164 ft | 457 kts | 179° |
| 2026-05-05 09:14 | 27.25105 | 119.55636 | 36167 ft | 457 kts | 179° |
| 2026-05-05 09:15 | 27.18800 | 119.55605 | 36168 ft | 457 kts | 180° |
| 2026-05-05 09:15 | 27.12434 | 119.55564 | 36168 ft | 457 kts | 180° |
| 2026-05-05 09:16 | 27.06099 | 119.55524 | 36168 ft | 457 kts | 180° |
| 2026-05-05 09:16 | 26.99744 | 119.55482 | 36169 ft | 456 kts | 179° |
| 2026-05-05 09:17 | 26.93489 | 119.55443 | 36170 ft | 451 kts | 180° |
| 2026-05-05 09:17 | 26.87256 | 119.55409 | 36170 ft | 446 kts | 180° |
| 2026-05-05 09:18 | 26.81111 | 119.55368 | 36168 ft | 444 kts | 180° |
| 2026-05-05 09:18 | 26.74947 | 119.55325 | 36168 ft | 444 kts | 180° |
| 2026-05-05 09:19 | 26.68816 | 119.55285 | 36168 ft | 444 kts | 180° |
| 2026-05-05 09:19 | 26.62659 | 119.55244 | 36168 ft | 444 kts | 180° |
| 2026-05-05 09:20 | 26.56668 | 119.55205 | 36168 ft | 444 kts | 180° |
| 2026-05-05 09:20 | 26.50598 | 119.55164 | 36168 ft | 444 kts | 180° |
| 2026-05-05 09:21 | 26.44537 | 119.55122 | 36168 ft | 444 kts | 180° |
| 2026-05-05 09:21 | 26.38340 | 119.55081 | 36168 ft | 444 kts | 180° |
| 2026-05-05 09:22 | 26.32095 | 119.55010 | 36168 ft | 444 kts | 181° |
| 2026-05-05 09:22 | 26.26397 | 119.54417 | 36169 ft | 444 kts | 190° |